sensor_id;sensor_type;location;lat;lon;timestamp;pressure;altitude;pressure_sealevel;temperature;humidity
45621;BME280;31345;51.522;10.702;2022-09-29T00:00:48;97582.13;;;4.09;100.00
45621;BME280;31345;51.522;10.702;2022-09-29T00:03:16;97580.94;;;4.00;100.00
45621;BME280;31345;51.522;10.702;2022-09-29T00:05:48;97584.53;;;4.12;100.00
45621;BME280;31345;51.522;10.702;2022-09-29T00:08:18;97577.94;;;4.21;100.00
45621;BME280;31345;51.522;10.702;2022-09-29T00:10:46;97586.06;;;4.42;100.00
45621;BME280;31345;51.522;10.702;2022-09-29T00:13:16;97575.84;;;4.13;100.00
45621;BME280;31345;51.522;10.702;2022-09-29T00:15:44;97585.97;;;4.44;100.00
45621;BME280;31345;51.522;10.702;2022-09-29T00:18:20;97583.59;;;4.54;100.00
45621;BME280;31345;51.522;10.702;2022-09-29T00:20:55;97589.31;;;4.72;100.00
45621;BME280;31345;51.522;10.702;2022-09-29T00:23:23;97587.31;;;4.50;100.00
45621;BME280;31345;51.522;10.702;2022-09-29T00:26:12;97584.50;;;4.40;100.00
45621;BME280;31345;51.522;10.702;2022-09-29T00:31:43;97595.53;;;4.56;100.00
45621;BME280;31345;51.522;10.702;2022-09-29T00:34:11;97592.91;;;4.43;100.00
45621;BME280;31345;51.522;10.702;2022-09-29T00:36:38;97590.13;;;4.46;100.00
45621;BME280;31345;51.522;10.702;2022-09-29T00:39:09;97587.41;;;4.35;100.00
45621;BME280;31345;51.522;10.702;2022-09-29T00:41:39;97593.53;;;4.47;100.00
45621;BME280;31345;51.522;10.702;2022-09-29T00:47:13;97585.47;;;4.52;100.00
45621;BME280;31345;51.522;10.702;2022-09-29T00:49:46;97585.28;;;4.55;100.00
45621;BME280;31345;51.522;10.702;2022-09-29T00:52:20;97586.63;;;4.61;100.00
45621;BME280;31345;51.522;10.702;2022-09-29T00:54:51;97576.91;;;4.64;100.00
45621;BME280;31345;51.522;10.702;2022-09-29T00:57:22;97576.91;;;4.90;100.00
45621;BME280;31345;51.522;10.702;2022-09-29T00:59:54;97587.81;;;4.95;100.00
45621;BME280;31345;51.522;10.702;2022-09-29T01:02:26;97579.19;;;4.95;100.00
45621;BME280;31345;51.522;10.702;2022-09-29T01:04:55;97584.88;;;4.61;100.00
45621;BME280;31345;51.522;10.702;2022-09-29T01:07:28;97581.78;;;4.69;100.00
45621;BME280;31345;51.522;10.702;2022-09-29T01:09:56;97577.53;;;4.81;100.00
45621;BME280;31345;51.522;10.702;2022-09-29T01:12:24;97582.28;;;4.74;100.00
45621;BME280;31345;51.522;10.702;2022-09-29T01:14:53;97580.53;;;4.62;100.00
45621;BME280;31345;51.522;10.702;2022-09-29T01:17:22;97584.03;;;4.47;100.00
45621;BME280;31345;51.522;10.702;2022-09-29T01:20:00;97582.19;;;4.22;100.00
45621;BME280;31345;51.522;10.702;2022-09-29T01:23:05;97584.97;;;4.19;100.00
45621;BME280;31345;51.522;10.702;2022-09-29T01:26:06;97584.44;;;4.54;100.00
45621;BME280;31345;51.522;10.702;2022-09-29T01:31:50;97581.66;;;4.57;100.00
45621;BME280;31345;51.522;10.702;2022-09-29T01:34:27;97584.34;;;4.56;100.00
45621;BME280;31345;51.522;10.702;2022-09-29T01:37:08;97585.00;;;4.32;100.00
45621;BME280;31345;51.522;10.702;2022-09-29T01:39:41;97585.41;;;4.26;100.00
45621;BME280;31345;51.522;10.702;2022-09-29T01:42:13;97590.09;;;4.06;100.00
45621;BME280;31345;51.522;10.702;2022-09-29T01:44:46;97588.59;;;3.89;100.00
45621;BME280;31345;51.522;10.702;2022-09-29T01:47:20;97588.00;;;3.98;100.00
45621;BME280;31345;51.522;10.702;2022-09-29T01:49:52;97589.84;;;4.24;100.00
45621;BME280;31345;51.522;10.702;2022-09-29T01:52:23;97583.34;;;4.03;100.00
45621;BME280;31345;51.522;10.702;2022-09-29T01:54:57;97584.91;;;4.06;100.00
45621;BME280;31345;51.522;10.702;2022-09-29T01:57:30;97593.88;;;4.00;100.00
45621;BME280;31345;51.522;10.702;2022-09-29T02:00:03;97589.38;;;4.04;100.00
45621;BME280;31345;51.522;10.702;2022-09-29T02:02:43;97583.19;;;3.92;100.00
45621;BME280;31345;51.522;10.702;2022-09-29T02:05:17;97586.53;;;3.94;100.00
45621;BME280;31345;51.522;10.702;2022-09-29T02:07:47;97594.00;;;3.99;100.00
45621;BME280;31345;51.522;10.702;2022-09-29T02:10:18;97590.78;;;3.95;100.00
45621;BME280;31345;51.522;10.702;2022-09-29T02:12:50;97599.03;;;3.87;100.00
45621;BME280;31345;51.522;10.702;2022-09-29T02:15:24;97600.50;;;3.91;100.00
45621;BME280;31345;51.522;10.702;2022-09-29T02:18:00;97599.47;;;3.79;100.00
45621;BME280;31345;51.522;10.702;2022-09-29T02:20:29;97595.59;;;3.72;100.00
45621;BME280;31345;51.522;10.702;2022-09-29T02:22:57;97596.34;;;3.74;100.00
45621;BME280;31345;51.522;10.702;2022-09-29T02:25:25;97602.28;;;3.62;100.00
45621;BME280;31345;51.522;10.702;2022-09-29T02:27:53;97605.53;;;3.51;100.00
45621;BME280;31345;51.522;10.702;2022-09-29T02:30:21;97606.09;;;3.41;100.00
45621;BME280;31345;51.522;10.702;2022-09-29T02:32:48;97605.50;;;3.65;100.00
45621;BME280;31345;51.522;10.702;2022-09-29T02:35:17;97606.09;;;3.56;100.00
45621;BME280;31345;51.522;10.702;2022-09-29T02:38:03;97614.41;;;3.47;100.00
45621;BME280;31345;51.522;10.702;2022-09-29T02:40:40;97610.34;;;3.42;100.00
45621;BME280;31345;51.522;10.702;2022-09-29T02:43:19;97615.50;;;3.42;100.00
45621;BME280;31345;51.522;10.702;2022-09-29T02:46:02;97610.31;;;3.57;100.00
45621;BME280;31345;51.522;10.702;2022-09-29T02:48:58;97618.63;;;3.33;100.00
45621;BME280;31345;51.522;10.702;2022-09-29T02:51:36;97619.66;;;3.30;100.00
45621;BME280;31345;51.522;10.702;2022-09-29T02:54:23;97620.75;;;3.26;100.00
45621;BME280;31345;51.522;10.702;2022-09-29T02:57:03;97623.88;;;3.32;100.00
45621;BME280;31345;51.522;10.702;2022-09-29T02:59:41;97630.63;;;3.34;100.00
45621;BME280;31345;51.522;10.702;2022-09-29T03:02:23;97626.22;;;3.36;100.00
45621;BME280;31345;51.522;10.702;2022-09-29T03:04:52;97626.47;;;3.32;100.00
45621;BME280;31345;51.522;10.702;2022-09-29T03:07:21;97627.41;;;3.30;100.00
45621;BME280;31345;51.522;10.702;2022-09-29T03:09:49;97632.03;;;3.25;100.00
45621;BME280;31345;51.522;10.702;2022-09-29T03:12:17;97642.47;;;3.38;100.00
45621;BME280;31345;51.522;10.702;2022-09-29T03:14:44;97637.56;;;3.34;100.00
45621;BME280;31345;51.522;10.702;2022-09-29T03:17:12;97632.03;;;3.25;100.00
45621;BME280;31345;51.522;10.702;2022-09-29T03:19:39;97626.00;;;3.25;100.00
45621;BME280;31345;51.522;10.702;2022-09-29T03:22:07;97624.63;;;3.34;100.00
45621;BME280;31345;51.522;10.702;2022-09-29T03:24:36;97626.03;;;3.39;100.00
45621;BME280;31345;51.522;10.702;2022-09-29T03:27:04;97627.03;;;3.22;100.00
45621;BME280;31345;51.522;10.702;2022-09-29T03:29:32;97635.25;;;3.43;100.00
45621;BME280;31345;51.522;10.702;2022-09-29T03:32:00;97627.13;;;3.64;100.00
45621;BME280;31345;51.522;10.702;2022-09-29T03:34:27;97629.59;;;3.51;100.00
45621;BME280;31345;51.522;10.702;2022-09-29T03:36:55;97631.38;;;3.51;100.00
45621;BME280;31345;51.522;10.702;2022-09-29T03:39:23;97632.66;;;3.58;100.00
45621;BME280;31345;51.522;10.702;2022-09-29T03:41:53;97637.09;;;3.56;100.00
45621;BME280;31345;51.522;10.702;2022-09-29T03:44:21;97633.94;;;3.80;100.00
45621;BME280;31345;51.522;10.702;2022-09-29T03:46:48;97640.28;;;3.89;100.00
45621;BME280;31345;51.522;10.702;2022-09-29T03:49:16;97636.63;;;4.06;100.00
45621;BME280;31345;51.522;10.702;2022-09-29T03:51:44;97636.59;;;3.93;100.00
45621;BME280;31345;51.522;10.702;2022-09-29T03:54:11;97644.09;;;3.83;100.00
45621;BME280;31345;51.522;10.702;2022-09-29T03:56:39;97634.78;;;4.08;100.00
45621;BME280;31345;51.522;10.702;2022-09-29T03:59:08;97639.19;;;4.20;100.00
45621;BME280;31345;51.522;10.702;2022-09-29T04:01:37;97644.03;;;4.12;100.00
45621;BME280;31345;51.522;10.702;2022-09-29T04:04:05;97643.28;;;4.10;100.00
45621;BME280;31345;51.522;10.702;2022-09-29T04:06:33;97644.03;;;4.12;100.00
45621;BME280;31345;51.522;10.702;2022-09-29T04:09:01;97641.78;;;4.20;100.00
45621;BME280;31345;51.522;10.702;2022-09-29T04:11:29;97649.97;;;4.27;100.00
45621;BME280;31345;51.522;10.702;2022-09-29T04:13:57;97647.47;;;4.26;100.00
45621;BME280;31345;51.522;10.702;2022-09-29T04:16:26;97648.69;;;4.20;100.00
45621;BME280;31345;51.522;10.702;2022-09-29T04:18:54;97652.47;;;4.29;100.00
45621;BME280;31345;51.522;10.702;2022-09-29T04:21:21;97654.72;;;4.20;100.00
45621;BME280;31345;51.522;10.702;2022-09-29T04:23:49;97650.59;;;4.03;100.00
45621;BME280;31345;51.522;10.702;2022-09-29T04:26:17;97653.28;;;4.02;100.00
45621;BME280;31345;51.522;10.702;2022-09-29T04:28:46;97658.78;;;4.10;100.00
45621;BME280;31345;51.522;10.702;2022-09-29T04:31:14;97660.78;;;3.92;100.00
45621;BME280;31345;51.522;10.702;2022-09-29T04:33:43;97660.06;;;4.17;100.00
45621;BME280;31345;51.522;10.702;2022-09-29T04:36:11;97659.09;;;4.05;100.00
45621;BME280;31345;51.522;10.702;2022-09-29T04:38:38;97665.22;;;4.04;100.00
45621;BME280;31345;51.522;10.702;2022-09-29T04:41:06;97665.75;;;3.95;100.00
45621;BME280;31345;51.522;10.702;2022-09-29T04:43:34;97673.66;;;4.21;100.00
45621;BME280;31345;51.522;10.702;2022-09-29T04:46:03;97663.94;;;4.25;100.00
45621;BME280;31345;51.522;10.702;2022-09-29T04:48:32;97668.41;;;4.23;100.00
45621;BME280;31345;51.522;10.702;2022-09-29T04:51:02;97676.63;;;4.15;100.00
45621;BME280;31345;51.522;10.702;2022-09-29T04:53:31;97674.00;;;4.29;100.00
45621;BME280;31345;51.522;10.702;2022-09-29T04:56:04;97673.16;;;4.29;100.00
45621;BME280;31345;51.522;10.702;2022-09-29T04:58:32;97669.25;;;4.08;100.00
45621;BME280;31345;51.522;10.702;2022-09-29T05:01:10;97675.16;;;4.11;100.00
45621;BME280;31345;51.522;10.702;2022-09-29T05:03:39;97675.66;;;4.03;100.00
45621;BME280;31345;51.522;10.702;2022-09-29T05:06:09;97674.78;;;4.17;100.00
45621;BME280;31345;51.522;10.702;2022-09-29T05:08:37;97676.91;;;4.10;100.00
45621;BME280;31345;51.522;10.702;2022-09-29T05:11:05;97681.97;;;4.12;100.00
45621;BME280;31345;51.522;10.702;2022-09-29T05:13:33;97684.63;;;4.25;100.00
45621;BME280;31345;51.522;10.702;2022-09-29T05:16:00;97685.50;;;4.38;100.00
45621;BME280;31345;51.522;10.702;2022-09-29T05:18:29;97686.53;;;4.36;100.00
45621;BME280;31345;51.522;10.702;2022-09-29T05:21:01;97687.47;;;4.34;100.00
45621;BME280;31345;51.522;10.702;2022-09-29T05:23:30;97687.81;;;4.15;100.00
45621;BME280;31345;51.522;10.702;2022-09-29T05:26:02;97694.66;;;4.02;100.00
45621;BME280;31345;51.522;10.702;2022-09-29T05:28:30;97695.50;;;4.02;100.00
45621;BME280;31345;51.522;10.702;2022-09-29T05:31:06;97694.13;;;3.97;100.00
45621;BME280;31345;51.522;10.702;2022-09-29T05:33:35;97698.00;;;4.04;100.00
45621;BME280;31345;51.522;10.702;2022-09-29T05:36:03;97694.66;;;4.02;100.00
45621;BME280;31345;51.522;10.702;2022-09-29T05:38:34;97696.53;;;3.85;100.00
45621;BME280;31345;51.522;10.702;2022-09-29T05:41:03;97694.38;;;4.06;100.00
45621;BME280;31345;51.522;10.702;2022-09-29T05:43:31;97696.16;;;3.91;100.00
45621;BME280;31345;51.522;10.702;2022-09-29T05:45:59;97695.97;;;3.94;100.00
45621;BME280;31345;51.522;10.702;2022-09-29T05:48:27;97689.44;;;3.89;100.00
45621;BME280;31345;51.522;10.702;2022-09-29T05:50:56;97698.56;;;3.80;100.00
45621;BME280;31345;51.522;10.702;2022-09-29T05:53:25;97699.47;;;4.08;100.00
45621;BME280;31345;51.522;10.702;2022-09-29T05:55:54;97693.47;;;3.78;100.00
45621;BME280;31345;51.522;10.702;2022-09-29T05:58:21;97702.00;;;3.80;100.00
45621;BME280;31345;51.522;10.702;2022-09-29T06:00:49;97701.31;;;3.77;100.00
45621;BME280;31345;51.522;10.702;2022-09-29T06:03:17;97699.94;;;3.86;100.00
45621;BME280;31345;51.522;10.702;2022-09-29T06:05:45;97699.00;;;3.72;100.00
45621;BME280;31345;51.522;10.702;2022-09-29T06:08:13;97703.81;;;3.93;100.00
45621;BME280;31345;51.522;10.702;2022-09-29T06:10:41;97699.63;;;4.19;100.00
45621;BME280;31345;51.522;10.702;2022-09-29T06:13:10;97707.13;;;4.10;100.00
45621;BME280;31345;51.522;10.702;2022-09-29T06:15:38;97711.94;;;4.01;100.00
45621;BME280;31345;51.522;10.702;2022-09-29T06:18:05;97712.47;;;4.06;100.00
45621;BME280;31345;51.522;10.702;2022-09-29T06:20:33;97717.13;;;4.01;100.00
45621;BME280;31345;51.522;10.702;2022-09-29T06:23:04;97717.28;;;3.98;100.00
45621;BME280;31345;51.522;10.702;2022-09-29T06:25:32;97719.69;;;4.01;100.00
45621;BME280;31345;51.522;10.702;2022-09-29T06:28:00;97719.13;;;3.96;100.00
45621;BME280;31345;51.522;10.702;2022-09-29T06:30:29;97708.69;;;3.98;100.00
45621;BME280;31345;51.522;10.702;2022-09-29T06:32:57;97715.06;;;4.06;100.00
45621;BME280;31345;51.522;10.702;2022-09-29T06:35:25;97716.72;;;4.22;100.00
45621;BME280;31345;51.522;10.702;2022-09-29T06:38:10;97711.09;;;4.15;100.00
45621;BME280;31345;51.522;10.702;2022-09-29T06:40:37;97707.75;;;4.28;100.00
45621;BME280;31345;51.522;10.702;2022-09-29T06:43:05;97710.94;;;4.31;100.00
45621;BME280;31345;51.522;10.702;2022-09-29T06:45:34;97709.13;;;4.33;100.00
45621;BME280;31345;51.522;10.702;2022-09-29T06:48:02;97708.38;;;4.31;100.00
45621;BME280;31345;51.522;10.702;2022-09-29T06:50:30;97712.38;;;4.23;100.00
45621;BME280;31345;51.522;10.702;2022-09-29T06:52:58;97713.88;;;4.40;100.00
45621;BME280;31345;51.522;10.702;2022-09-29T06:55:26;97714.78;;;4.53;100.00
45621;BME280;31345;51.522;10.702;2022-09-29T06:57:54;97720.53;;;4.44;100.00
45621;BME280;31345;51.522;10.702;2022-09-29T07:00:21;97717.38;;;4.53;100.00
45621;BME280;31345;51.522;10.702;2022-09-29T07:02:56;97712.31;;;4.52;100.00
45621;BME280;31345;51.522;10.702;2022-09-29T07:05:24;97717.22;;;4.42;100.00
45621;BME280;31345;51.522;10.702;2022-09-29T07:07:55;97722.13;;;4.46;100.00
45621;BME280;31345;51.522;10.702;2022-09-29T07:10:22;97730.47;;;4.65;100.00
45621;BME280;31345;51.522;10.702;2022-09-29T07:12:50;97732.13;;;4.66;100.00
45621;BME280;31345;51.522;10.702;2022-09-29T07:15:18;97734.19;;;4.61;100.00
45621;BME280;31345;51.522;10.702;2022-09-29T07:17:49;97728.88;;;4.62;100.00
45621;BME280;31345;51.522;10.702;2022-09-29T07:20:19;97722.88;;;4.89;100.00
45621;BME280;31345;51.522;10.702;2022-09-29T07:22:47;97724.34;;;4.93;100.00
45621;BME280;31345;51.522;10.702;2022-09-29T07:25:14;97726.59;;;4.85;100.00
45621;BME280;31345;51.522;10.702;2022-09-29T07:27:42;97724.75;;;5.00;100.00
45621;BME280;31345;51.522;10.702;2022-09-29T07:30:10;97722.06;;;4.89;100.00
45621;BME280;31345;51.522;10.702;2022-09-29T07:32:38;97729.47;;;4.80;100.00
45621;BME280;31345;51.522;10.702;2022-09-29T07:35:06;97723.53;;;4.93;100.00
45621;BME280;31345;51.522;10.702;2022-09-29T07:37:35;97727.78;;;4.94;100.00
45621;BME280;31345;51.522;10.702;2022-09-29T07:40:04;97727.47;;;4.98;100.00
45621;BME280;31345;51.522;10.702;2022-09-29T07:42:32;97721.03;;;5.04;100.00
45621;BME280;31345;51.522;10.702;2022-09-29T07:44:59;97729.97;;;5.13;100.00
45621;BME280;31345;51.522;10.702;2022-09-29T07:47:27;97732.16;;;5.06;100.00
45621;BME280;31345;51.522;10.702;2022-09-29T07:49:55;97735.91;;;5.15;100.00
45621;BME280;31345;51.522;10.702;2022-09-29T07:52:22;97732.59;;;5.26;100.00
45621;BME280;31345;51.522;10.702;2022-09-29T07:54:51;97739.53;;;5.26;100.00
45621;BME280;31345;51.522;10.702;2022-09-29T07:57:19;97737.72;;;5.41;100.00
45621;BME280;31345;51.522;10.702;2022-09-29T07:59:47;97738.88;;;5.75;100.00
45621;BME280;31345;51.522;10.702;2022-09-29T08:02:14;97740.09;;;5.83;100.00
45621;BME280;31345;51.522;10.702;2022-09-29T08:04:42;97746.13;;;5.57;100.00
45621;BME280;31345;51.522;10.702;2022-09-29T08:07:10;97754.22;;;5.66;100.00
45621;BME280;31345;51.522;10.702;2022-09-29T08:09:37;97757.94;;;5.74;100.00
45621;BME280;31345;51.522;10.702;2022-09-29T08:12:06;97754.81;;;5.82;100.00
45621;BME280;31345;51.522;10.702;2022-09-29T08:14:34;97758.56;;;5.91;100.00
45621;BME280;31345;51.522;10.702;2022-09-29T08:17:03;97760.94;;;5.94;100.00
45621;BME280;31345;51.522;10.702;2022-09-29T08:19:31;97763.22;;;5.99;100.00
45621;BME280;31345;51.522;10.702;2022-09-29T08:21:59;97768.91;;;6.04;100.00
45621;BME280;31345;51.522;10.702;2022-09-29T08:24:26;97768.09;;;5.91;100.00
45621;BME280;31345;51.522;10.702;2022-09-29T08:26:55;97767.25;;;5.90;100.00
45621;BME280;31345;51.522;10.702;2022-09-29T08:29:24;97767.66;;;6.23;100.00
45621;BME280;31345;51.522;10.702;2022-09-29T08:31:52;97776.03;;;6.39;100.00
45621;BME280;31345;51.522;10.702;2022-09-29T08:34:22;97778.91;;;6.48;100.00
45621;BME280;31345;51.522;10.702;2022-09-29T08:36:49;97782.94;;;6.52;100.00
45621;BME280;31345;51.522;10.702;2022-09-29T08:39:17;97779.66;;;6.74;100.00
45621;BME280;31345;51.522;10.702;2022-09-29T08:41:50;97781.84;;;7.05;100.00
45621;BME280;31345;51.522;10.702;2022-09-29T08:44:26;97777.97;;;6.86;100.00
45621;BME280;31345;51.522;10.702;2022-09-29T08:46:58;97788.47;;;6.85;100.00
45621;BME280;31345;51.522;10.702;2022-09-29T08:49:34;97794.25;;;6.64;100.00
45621;BME280;31345;51.522;10.702;2022-09-29T08:52:09;97791.66;;;6.88;100.00
45621;BME280;31345;51.522;10.702;2022-09-29T08:54:40;97793.34;;;6.89;100.00
45621;BME280;31345;51.522;10.702;2022-09-29T08:57:11;97795.88;;;7.02;100.00
45621;BME280;31345;51.522;10.702;2022-09-29T08:59:50;97790.19;;;7.22;100.00
45621;BME280;31345;51.522;10.702;2022-09-29T09:02:47;97791.41;;;7.29;100.00
45621;BME280;31345;51.522;10.702;2022-09-29T09:05:31;97787.97;;;7.64;100.00
45621;BME280;31345;51.522;10.702;2022-09-29T09:08:12;97787.19;;;8.32;100.00
45621;BME280;31345;51.522;10.702;2022-09-29T09:10:47;97776.75;;;8.55;100.00
45621;BME280;31345;51.522;10.702;2022-09-29T09:13:32;97784.59;;;8.88;100.00
45621;BME280;31345;51.522;10.702;2022-09-29T09:16:19;97781.38;;;9.07;100.00
45621;BME280;31345;51.522;10.702;2022-09-29T09:21:46;97771.16;;;9.58;100.00
45621;BME280;31345;51.522;10.702;2022-09-29T09:24:24;97769.94;;;9.84;100.00
45621;BME280;31345;51.522;10.702;2022-09-29T09:26:57;97770.69;;;9.96;100.00
45621;BME280;31345;51.522;10.702;2022-09-29T09:29:28;97769.06;;;9.73;100.00
45621;BME280;31345;51.522;10.702;2022-09-29T09:32:03;97770.94;;;9.93;100.00
45621;BME280;31345;51.522;10.702;2022-09-29T09:34:35;97774.97;;;10.28;100.00
45621;BME280;31345;51.522;10.702;2022-09-29T09:37:09;97771.50;;;10.18;100.00
45621;BME280;31345;51.522;10.702;2022-09-29T09:39:44;97770.69;;;10.27;100.00
45621;BME280;31345;51.522;10.702;2022-09-29T09:42:16;97769.84;;;10.58;100.00
45621;BME280;31345;51.522;10.702;2022-09-29T09:44:45;97771.78;;;10.75;100.00
45621;BME280;31345;51.522;10.702;2022-09-29T09:47:24;97768.66;;;10.91;100.00
45621;BME280;31345;51.522;10.702;2022-09-29T09:49:55;97775.78;;;10.70;100.00
45621;BME280;31345;51.522;10.702;2022-09-29T09:52:28;97776.19;;;10.85;100.00
45621;BME280;31345;51.522;10.702;2022-09-29T09:54:58;97770.88;;;11.26;100.00
45621;BME280;31345;51.522;10.702;2022-09-29T09:57:48;97778.28;;;11.01;100.00
45621;BME280;31345;51.522;10.702;2022-09-29T10:00:21;97778.72;;;11.36;100.00
45621;BME280;31345;51.522;10.702;2022-09-29T10:02:53;97780.06;;;11.50;100.00
45621;BME280;31345;51.522;10.702;2022-09-29T10:05:32;97776.19;;;11.74;100.00
45621;BME280;31345;51.522;10.702;2022-09-29T10:08:03;97778.81;;;11.64;100.00
45621;BME280;31345;51.522;10.702;2022-09-29T10:10:32;97782.53;;;11.61;100.00
45621;BME280;31345;51.522;10.702;2022-09-29T10:13:03;97782.63;;;11.89;100.00
45621;BME280;31345;51.522;10.702;2022-09-29T10:15:35;97781.25;;;11.95;99.13
45621;BME280;31345;51.522;10.702;2022-09-29T10:18:11;97780.84;;;12.00;98.41
45621;BME280;31345;51.522;10.702;2022-09-29T10:20:40;97778.34;;;12.36;97.11
45621;BME280;31345;51.522;10.702;2022-09-29T10:23:19;97782.44;;;12.11;97.95
45621;BME280;31345;51.522;10.702;2022-09-29T10:25:52;97782.63;;;11.89;97.06
45621;BME280;31345;51.522;10.702;2022-09-29T10:28:22;97782.69;;;12.17;97.57
45621;BME280;31345;51.522;10.702;2022-09-29T10:30:51;97778.16;;;12.76;94.78
45621;BME280;31345;51.522;10.702;2022-09-29T10:33:23;97786.31;;;12.44;94.28
45621;BME280;31345;51.522;10.702;2022-09-29T10:36:04;97778.63;;;12.61;94.36
45621;BME280;31345;51.522;10.702;2022-09-29T10:38:34;97788.19;;;13.17;94.87
45621;BME280;31345;51.522;10.702;2022-09-29T10:41:05;97787.03;;;12.83;91.55
45621;BME280;31345;51.522;10.702;2022-09-29T10:43:36;97783.22;;;12.77;91.44
45621;BME280;31345;51.522;10.702;2022-09-29T10:46:05;97785.63;;;13.25;91.45
45621;BME280;31345;51.522;10.702;2022-09-29T10:48:34;97791.44;;;12.92;92.54
45621;BME280;31345;51.522;10.702;2022-09-29T10:51:03;97779.50;;;13.34;90.94
45621;BME280;31345;51.522;10.702;2022-09-29T10:53:34;97784.22;;;12.94;87.31
45621;BME280;31345;51.522;10.702;2022-09-29T10:56:08;97782.78;;;13.36;89.15
45621;BME280;31345;51.522;10.702;2022-09-29T10:58:42;97781.50;;;13.59;86.21
45621;BME280;31345;51.522;10.702;2022-09-29T11:01:13;97778.66;;;13.70;88.03
45621;BME280;31345;51.522;10.702;2022-09-29T11:03:48;97777.72;;;14.06;85.23
45621;BME280;31345;51.522;10.702;2022-09-29T11:06:24;97778.88;;;14.04;87.67
45621;BME280;31345;51.522;10.702;2022-09-29T11:08:57;97780.97;;;14.00;87.58
45621;BME280;31345;51.522;10.702;2022-09-29T11:11:27;97776.81;;;13.89;82.87
45621;BME280;31345;51.522;10.702;2022-09-29T11:13:56;97779.75;;;14.21;79.28
45621;BME280;31345;51.522;10.702;2022-09-29T11:16:28;97787.38;;;14.32;83.48
45621;BME280;31345;51.522;10.702;2022-09-29T11:19:03;97781.69;;;14.45;81.50
45621;BME280;31345;51.522;10.702;2022-09-29T11:24:54;97791.41;;;14.61;81.99
45621;BME280;31345;51.522;10.702;2022-09-29T11:27:32;97786.69;;;14.22;81.35
45621;BME280;31345;51.522;10.702;2022-09-29T11:30:06;97779.34;;;14.42;80.80
45621;BME280;31345;51.522;10.702;2022-09-29T11:32:49;97779.38;;;14.50;80.86
45621;BME280;31345;51.522;10.702;2022-09-29T11:35:35;97780.25;;;14.68;80.73
45621;BME280;31345;51.522;10.702;2022-09-29T11:38:17;97779.78;;;14.64;75.30
45621;BME280;31345;51.522;10.702;2022-09-29T11:40:59;97785.38;;;14.26;76.95
45621;BME280;31345;51.522;10.702;2022-09-29T11:43:42;97784.38;;;14.27;77.79
45621;BME280;31345;51.522;10.702;2022-09-29T11:46:34;97786.94;;;14.10;79.38
45621;BME280;31345;51.522;10.702;2022-09-29T11:49:27;97778.78;;;14.22;80.31
45621;BME280;31345;51.522;10.702;2022-09-29T11:52:15;97790.09;;;14.22;79.08
45621;BME280;31345;51.522;10.702;2022-09-29T11:54:57;97788.81;;;14.26;80.21
45621;BME280;31345;51.522;10.702;2022-09-29T11:57:40;97788.34;;;14.31;79.29
45621;BME280;31345;51.522;10.702;2022-09-29T12:00:11;97789.47;;;14.20;79.41
45621;BME280;31345;51.522;10.702;2022-09-29T12:03:07;97787.66;;;13.94;78.75
45621;BME280;31345;51.522;10.702;2022-09-29T12:05:43;97789.31;;;13.95;80.22
45621;BME280;31345;51.522;10.702;2022-09-29T12:08:26;97789.00;;;13.98;79.49
45621;BME280;31345;51.522;10.702;2022-09-29T12:11:04;97782.50;;;14.11;80.57
45621;BME280;31345;51.522;10.702;2022-09-29T12:13:41;97790.97;;;13.96;82.73
45621;BME280;31345;51.522;10.702;2022-09-29T12:16:14;97788.34;;;13.70;79.21
45621;BME280;31345;51.522;10.702;2022-09-29T12:18:47;97783.88;;;14.23;76.48
45621;BME280;31345;51.522;10.702;2022-09-29T12:21:20;97782.34;;;14.12;78.73
45621;BME280;31345;51.522;10.702;2022-09-29T12:23:55;97776.75;;;13.81;79.10
45621;BME280;31345;51.522;10.702;2022-09-29T12:26:26;97782.09;;;13.97;77.05
45621;BME280;31345;51.522;10.702;2022-09-29T12:28:57;97778.53;;;14.42;78.56
45621;BME280;31345;51.522;10.702;2022-09-29T12:31:30;97778.97;;;14.29;75.00
45621;BME280;31345;51.522;10.702;2022-09-29T12:34:02;97778.72;;;14.48;70.30
45621;BME280;31345;51.522;10.702;2022-09-29T12:36:43;97775.22;;;14.31;72.15
45621;BME280;31345;51.522;10.702;2022-09-29T12:39:28;97780.72;;;13.85;76.27
45621;BME280;31345;51.522;10.702;2022-09-29T12:42:07;97776.94;;;14.14;75.45
45621;BME280;31345;51.522;10.702;2022-09-29T12:44:44;97782.41;;;13.68;77.83
45621;BME280;31345;51.522;10.702;2022-09-29T12:47:21;97783.31;;;14.11;77.07
45621;BME280;31345;51.522;10.702;2022-09-29T12:50:00;97775.91;;;14.07;76.62
45621;BME280;31345;51.522;10.702;2022-09-29T12:52:35;97775.28;;;14.13;77.01
45621;BME280;31345;51.522;10.702;2022-09-29T12:55:16;97774.88;;;13.99;74.46
45621;BME280;31345;51.522;10.702;2022-09-29T12:57:47;97783.97;;;14.13;76.52
45621;BME280;31345;51.522;10.702;2022-09-29T13:00:16;97782.25;;;14.31;76.50
45621;BME280;31345;51.522;10.702;2022-09-29T13:03:12;97781.16;;;14.42;74.76
45621;BME280;31345;51.522;10.702;2022-09-29T13:06:07;97790.22;;;14.12;75.86
45621;BME280;31345;51.522;10.702;2022-09-29T13:09:01;97783.09;;;13.96;75.96
45621;BME280;31345;51.522;10.702;2022-09-29T13:11:54;97789.53;;;14.02;76.62
45621;BME280;31345;51.522;10.702;2022-09-29T13:14:44;97786.06;;;14.01;77.87
45621;BME280;31345;51.522;10.702;2022-09-29T13:17:29;97786.66;;;13.95;77.71
45621;BME280;31345;51.522;10.702;2022-09-29T13:20:27;97788.94;;;13.90;76.65
45621;BME280;31345;51.522;10.702;2022-09-29T13:23:19;97788.94;;;13.63;79.76
45621;BME280;31345;51.522;10.702;2022-09-29T13:26:01;97796.72;;;13.73;78.28
45621;BME280;31345;51.522;10.702;2022-09-29T13:28:37;97798.66;;;13.53;79.20
45621;BME280;31345;51.522;10.702;2022-09-29T13:31:09;97787.34;;;13.53;79.02
45621;BME280;31345;51.522;10.702;2022-09-29T13:33:40;97794.97;;;13.56;80.32